»·PEaware :: N751LU KBLI-KPUB

N751LU :: KBLI-KPUB

FLIGHT INFORMATION

Flight Status: Arrived
Operator: Privately registered:
United States
More flights under this callsign
Pilot: Ewen S. (18928)
Aircraft: CANADAIR CL-600 CHALLENGER
(CL60)
More flights by this aircraft type
Origin: KBLI Bellingham Intl
United States
Destination: KPUB Pueblo Meml
United States
More flights between these airports :: More routes between these airports
Route: CASCD J52 OCS EKR HBU V244 PUB
File this flight plan on PilotEdge
Remarks:
Altitude:
(Current/Filed)
37,000ft
Speed:
(Current/Filed)
460kts
Departed: 18-Jul-23 10:26 AM
Arrived: 18-Jul-23 12:43 PM
Distance/Time
Traveled:
1002nm/2:17
Distance/Time
To Go:
Arrived

Flight Plot

Page will automatically refresh every two minutes.

Flight plan parsing failed; only flown route is shown


Map Options




Map Legend


Flown Route
Filed Route
Departure Airport
Arrival Airport
Navaid (VOR, NDB)
Fix

Horizontal Profiles

Position Reports

Time Latitude Longitude Heading Altitude Ground
Speed
18-Jul-23 10:09 48.790416 -122.534951 269 160ft 0kts
18-Jul-23 10:10 48.790416 -122.534951 269 160ft 0kts
18-Jul-23 10:11 48.790416 -122.534951 269 160ft 0kts
18-Jul-23 10:12 48.790416 -122.534951 269 160ft 0kts
18-Jul-23 10:13 48.790416 -122.534951 269 160ft 0kts
18-Jul-23 10:14 48.790416 -122.534951 269 160ft 0kts
18-Jul-23 10:15 48.790416 -122.534951 269 160ft 0kts
18-Jul-23 10:16 48.790416 -122.534951 269 160ft 0kts
18-Jul-23 10:17 48.790416 -122.534951 269 160ft 0kts
18-Jul-23 10:18 48.790416 -122.534951 269 160ft 0kts
18-Jul-23 10:19 48.790416 -122.534951 269 160ft 0kts
18-Jul-23 10:20 48.790416 -122.534951 269 160ft 0kts
18-Jul-23 10:21 48.790416 -122.534951 269 160ft 0kts
18-Jul-23 10:22 48.790416 -122.534951 269 160ft 0kts
18-Jul-23 10:23 48.790416 -122.534951 269 160ft 0kts
18-Jul-23 10:24 48.790914 -122.535859 2 161ft 16kts
18-Jul-23 10:25 48.796810 -122.535992 317 161ft 14kts
18-Jul-23 10:26 48.776939 -122.537637 181 463ft 182kts
18-Jul-23 10:27 48.739050 -122.500689 76 4630ft 207kts
18-Jul-23 10:28 48.770283 -122.406207 64 7993ft 288kts
18-Jul-23 10:29 48.761666 -122.281957 103 12242ft 316kts
18-Jul-23 10:30 48.740261 -122.148817 103 16098ft 336kts
18-Jul-23 10:31 48.717347 -122.007318 103 19381ft 355kts
18-Jul-23 10:32 48.696089 -121.877017 103 21939ft 369kts
18-Jul-23 10:32 48.675093 -121.749254 104 24087ft 382kts
18-Jul-23 10:33 48.648610 -121.589453 104 26484ft 399kts
18-Jul-23 10:35 48.616176 -121.395701 104 28915ft 416kts
18-Jul-23 10:36 48.587254 -121.224722 105 30744ft 426kts
18-Jul-23 10:37 48.545608 -121.055311 113 32305ft 435kts
18-Jul-23 10:37 48.507582 -120.912816 113 33458ft 443kts
18-Jul-23 10:38 48.460915 -120.739041 113 34700ft 450kts
18-Jul-23 10:39 48.414399 -120.567001 114 36283ft 441kts
18-Jul-23 10:41 48.360160 -120.368042 114 37387ft 444kts
18-Jul-23 10:42 48.311609 -120.191438 115 37359ft 466kts
18-Jul-23 10:42 48.269473 -120.039151 114 37376ft 481kts
18-Jul-23 10:43 48.217453 -119.852510 114 37351ft 487kts
18-Jul-23 10:44 48.165081 -119.666043 114 37342ft 483kts
18-Jul-23 10:45 48.112764 -119.481256 114 37377ft 483kts
18-Jul-23 10:46 48.059978 -119.296245 115 37376ft 484kts
18-Jul-23 10:47 48.006827 -119.111377 115 37374ft 484kts
18-Jul-23 10:48 47.953482 -118.927243 115 37382ft 483kts
18-Jul-23 10:49 47.899965 -118.743915 115 37379ft 484kts
18-Jul-23 10:50 47.845802 -118.559767 115 37421ft 485kts
18-Jul-23 10:51 47.791400 -118.376189 115 37457ft 485kts
18-Jul-23 10:52 47.736682 -118.192931 116 37456ft 485kts
18-Jul-23 10:53 47.681707 -118.010150 116 37574ft 487kts
18-Jul-23 10:54 47.626064 -117.826530 116 37578ft 488kts
18-Jul-23 10:55 47.568174 -117.645790 125 37606ft 485kts
18-Jul-23 10:56 47.479219 -117.499136 137 37648ft 478kts
18-Jul-23 10:57 47.384793 -117.359242 138 37639ft 482kts
18-Jul-23 10:58 47.290026 -117.219626 138 37638ft 480kts
18-Jul-23 10:59 47.195262 -117.080784 139 37706ft 480kts
18-Jul-23 11:00 47.100254 -116.942342 139 37721ft 483kts
18-Jul-23 11:01 47.004877 -116.804098 139 37726ft 483kts
18-Jul-23 11:02 46.908783 -116.665569 139 37729ft 483kts
18-Jul-23 11:03 46.812670 -116.527757 139 37751ft 486kts
18-Jul-23 11:04 46.715960 -116.389814 140 37738ft 486kts
18-Jul-23 11:05 46.618782 -116.251940 141 37765ft 487kts
18-Jul-23 11:06 46.521521 -116.114681 141 37742ft 488kts
18-Jul-23 11:07 46.423891 -115.977627 141 37794ft 490kts
18-Jul-23 11:08 46.326074 -115.841021 142 37857ft 490kts
18-Jul-23 11:09 46.227254 -115.703747 142 37764ft 492kts
18-Jul-23 11:10 46.128414 -115.567156 142 37785ft 492kts
18-Jul-23 11:11 46.028942 -115.430428 142 37795ft 495kts
18-Jul-23 11:12 45.929408 -115.294307 143 37864ft 494kts
18-Jul-23 11:13 45.833130 -115.163329 143 37846ft 493kts
18-Jul-23 11:14 45.733104 -115.027947 143 37881ft 496kts
18-Jul-23 11:15 45.632159 -114.892010 143 37903ft 496kts
18-Jul-23 11:16 45.531835 -114.757611 144 37952ft 495kts
18-Jul-23 11:17 45.430791 -114.622968 144 37928ft 497kts
18-Jul-23 11:18 45.329662 -114.488887 144 37860ft 498kts
18-Jul-23 11:19 45.228289 -114.355167 144 37847ft 498kts
18-Jul-23 11:20 45.126681 -114.221813 145 37833ft 497kts
18-Jul-23 11:21 45.025543 -114.086978 139 37830ft 505kts
18-Jul-23 11:22 44.942983 -113.922087 131 37838ft 517kts
18-Jul-23 11:23 44.862096 -113.755420 131 37843ft 516kts
18-Jul-23 11:24 44.780337 -113.587988 131 37859ft 520kts
18-Jul-23 11:25 44.698081 -113.420490 131 37859ft 519kts
18-Jul-23 11:26 44.615586 -113.253505 132 37894ft 521kts
18-Jul-23 11:27 44.532977 -113.087241 131 37993ft 520kts
18-Jul-23 11:28 44.449783 -112.920783 132 38053ft 521kts
18-Jul-23 11:29 44.366446 -112.754996 132 38078ft 523kts
18-Jul-23 11:30 44.282296 -112.588534 131 38022ft 524kts
18-Jul-23 11:31 44.197827 -112.422410 132 37932ft 526kts
18-Jul-23 11:32 44.113123 -112.256741 132 37882ft 526kts
18-Jul-23 11:33 44.015473 -112.109995 144 37881ft 516kts
18-Jul-23 11:34 43.912235 -111.970952 144 37880ft 517kts
18-Jul-23 11:35 43.809293 -111.832946 144 37890ft 515kts
18-Jul-23 11:36 43.706032 -111.695212 144 37910ft 514kts
18-Jul-23 11:37 43.603132 -111.558652 144 37932ft 514kts
18-Jul-23 11:38 43.500080 -111.422545 144 37967ft 512kts
18-Jul-23 11:39 43.396758 -111.286767 145 37988ft 511kts
18-Jul-23 11:40 43.293650 -111.151943 145 38008ft 512kts
18-Jul-23 11:41 43.191514 -111.019037 145 38020ft 512kts
18-Jul-23 11:42 43.087723 -110.884640 145 38038ft 513kts
18-Jul-23 11:43 42.983775 -110.750682 144 38046ft 513kts
18-Jul-23 11:44 42.879635 -110.617131 144 38053ft 514kts
18-Jul-23 11:45 42.775430 -110.484131 144 38035ft 512kts
18-Jul-23 11:46 42.671223 -110.351799 144 38011ft 514kts
18-Jul-23 11:47 42.566552 -110.219485 145 37994ft 514kts
18-Jul-23 11:48 42.461468 -110.087294 144 38019ft 513kts
18-Jul-23 11:49 42.356628 -109.956066 144 37964ft 515kts
18-Jul-23 11:50 42.251404 -109.824953 144 37979ft 514kts
18-Jul-23 11:51 42.146033 -109.694289 144 37996ft 515kts
18-Jul-23 11:52 42.040388 -109.563904 144 37996ft 515kts
18-Jul-23 11:53 41.934761 -109.434153 144 38022ft 515kts
18-Jul-23 11:54 41.828858 -109.304662 144 38040ft 513kts
18-Jul-23 11:55 41.723248 -109.176140 144 38032ft 513kts
18-Jul-23 11:56 41.617523 -109.048095 144 38030ft 513kts
18-Jul-23 11:57 41.499700 -108.948749 158 38020ft 498kts
18-Jul-23 11:58 41.378094 -108.859746 158 38020ft 497kts
18-Jul-23 11:59 41.256764 -108.771357 158 38037ft 497kts
18-Jul-23 12:00 41.135181 -108.683169 158 38060ft 497kts
18-Jul-23 12:01 41.013674 -108.595418 158 38059ft 497kts
18-Jul-23 12:02 40.892299 -108.508127 158 38081ft 496kts
18-Jul-23 12:03 40.771685 -108.421777 158 38090ft 497kts
18-Jul-23 12:04 40.649411 -108.334582 158 38086ft 498kts
18-Jul-23 12:05 40.527872 -108.248259 158 38074ft 495kts
18-Jul-23 12:06 40.406680 -108.162560 158 38049ft 494kts
18-Jul-23 12:07 40.285492 -108.077217 158 38019ft 493kts
18-Jul-23 12:08 40.164431 -107.992321 157 38009ft 494kts
18-Jul-23 12:09 40.042743 -107.910131 162 38013ft 488kts
18-Jul-23 12:10 39.917406 -107.840154 162 37987ft 488kts
18-Jul-23 12:11 39.793029 -107.770835 162 37984ft 487kts
18-Jul-23 12:12 39.667845 -107.701302 162 37971ft 488kts
18-Jul-23 12:13 39.542606 -107.631976 162 37954ft 489kts
18-Jul-23 12:14 39.416918 -107.562661 161 37956ft 489kts
18-Jul-23 12:15 39.291553 -107.493788 161 37942ft 490kts
18-Jul-23 12:16 39.166069 -107.425113 161 38010ft 490kts
18-Jul-23 12:17 39.040150 -107.356468 161 38043ft 490kts
18-Jul-23 12:18 38.917263 -107.289745 161 38062ft 489kts
18-Jul-23 12:19 38.791951 -107.221949 161 38046ft 490kts
18-Jul-23 12:20 38.665770 -107.153940 161 38075ft 489kts
18-Jul-23 12:21 38.545714 -107.070183 142 38109ft 500kts
18-Jul-23 12:22 38.463098 -106.927017 112 38042ft 507kts
18-Jul-23 12:23 38.437667 -106.751441 91 38065ft 505kts
18-Jul-23 12:24 38.428484 -106.574197 92 37136ft 494kts
18-Jul-23 12:25 38.419240 -106.401902 92 34917ft 480kts
18-Jul-23 12:26 38.411359 -106.264969 93 33023ft 460kts
18-Jul-23 12:27 38.402605 -106.107377 93 30706ft 440kts
18-Jul-23 12:28 38.393936 -105.955900 93 28411ft 421kts
18-Jul-23 12:29 38.385361 -105.810645 94 26212ft 401kts
18-Jul-23 12:30 38.377023 -105.672687 94 24122ft 381kts
18-Jul-23 12:31 38.368877 -105.540900 94 21997ft 365kts
18-Jul-23 12:32 38.360836 -105.413007 95 19809ft 358kts
18-Jul-23 12:33 38.352893 -105.288610 95 18079ft 343kts
18-Jul-23 12:34 38.345054 -105.167108 95 17847ft 334kts
18-Jul-23 12:35 38.337204 -105.048461 95 15518ft 337kts
18-Jul-23 12:36 38.329359 -104.931238 95 13788ft 323kts
18-Jul-23 12:37 38.322202 -104.824950 95 12607ft 289kts
18-Jul-23 12:38 38.313549 -104.722898 110 11129ft 281kts
18-Jul-23 12:39 38.272879 -104.644791 93 7348ft 251kts
18-Jul-23 12:40 38.285513 -104.571420 84 5823ft 183kts
18-Jul-23 12:41 38.287033 -104.514791 86 4797ft 145kts
18-Jul-23 12:42 38.287470 -104.485882 130 4666ft 21kts
18-Jul-23 12:43 38.285103 -104.488990 270 4666ft 17kts
18-Jul-23 12:44 38.284288 -104.491181 212 4666ft 0kts

Navigation Log

Ident Type
Flight plan parsing failed, navigation log unavailable